To NAV CANADA Home Page Login to a new session Search on AWWS site Disclaimer Vers la page française équivalente Tips FAQ What's new on the site To the Forecasts and Observations / NOTAM section To "File a Flight Plan" website Publications and other links Update of the User's profile FIC Telephone Numbers My Weather Data Folder Route Weather Data Regional Weather Data Local Weather Data To the Forecasts and Observations / NOTAM section
Request Generated 02/17/2019 at 02:29:18 UTC . Weather information available at that time is displayed.

METAR/TAF

If you find any discrepancies between the coded METAR/TAF and the plain language METAR/TAF please use the coded METAR/TAF. LWIS bulletins are not decoded in plain language.

WINNIPEG/JAMES ARMSTRONG RICHARDSON INTL/MB    

METAR CYWG 170200Z 03007KT 15SM FEW150 FEW250 M19/M23 A3018 RMK AC2CI1 CI TR SL 49=
METAR
LOCATION
CYWG - WINNIPEG/JAMES ARMSTRONG RICHARDSON
DATE - TIME
17 FEBRUARY 2019 - 0200 UTC
WIND
30 TRUE @ 7  KNOTS
VISIBILITY
15 STAT.  MILES
RUNWAY VISUAL RANGE
WEATHER
CLOUDINESS
FEW CLOUDS (1/8 - 2/8) 15000  FT
FEW CLOUDS (1/8 - 2/8) 25000  FT
TEMP / DEWPOINT
-19 C / -23 C
ALTIMETER
30.18 IN HG
RECENT WEATHER
WIND SHEAR

METAR CYWG 170100Z 04009KT 15SM FEW150 SCT250 M18/M22 A3017 RMK AC2CI1 SLP245=
METAR
LOCATION
CYWG - WINNIPEG/JAMES ARMSTRONG RICHARDSON
DATE - TIME
17 FEBRUARY 2019 - 0100 UTC
WIND
40 TRUE @ 9  KNOTS
VISIBILITY
15 STAT.  MILES
RUNWAY VISUAL RANGE
WEATHER
CLOUDINESS
FEW CLOUDS (1/8 - 2/8) 15000  FT
SCATTERED CLOUDS (3/8 - 4/8) 25000  FT
TEMP / DEWPOINT
-18 C / -22 C
ALTIMETER
30.17 IN HG
RECENT WEATHER
WIND SHEAR

METAR CYWG 170000Z 03008KT 15SM FEW150 SCT250 M17/M21 A3016 RMK AC2CI1 SLP244=
METAR
LOCATION
CYWG - WINNIPEG/JAMES ARMSTRONG RICHARDSON
DATE - TIME
17 FEBRUARY 2019 - 0000 UTC
WIND
30 TRUE @ 8  KNOTS
VISIBILITY
15 STAT.  MILES
RUNWAY VISUAL RANGE
WEATHER
CLOUDINESS
FEW CLOUDS (1/8 - 2/8) 15000  FT
SCATTERED CLOUDS (3/8 - 4/8) 25000  FT
TEMP / DEWPOINT
-17 C / -21 C
ALTIMETER
30.16 IN HG
RECENT WEATHER
WIND SHEAR

TAF CYWG 162338Z 1700/1724 06008KT P6SM FEW160 SCT240 TEMPO 1700/1704 BKN090 FM170400 03005KT P6SM FEW240 BECMG 1705/1707 36006KT FM171500 35008KT P6SM SCT140 BKN240 TEMPO 1715/1719 6SM IC RMK NXT FCST BY 170600Z=
TAF
LOCATION

CYWG - WINNIPEG/JAMES ARMSTRONG RICHARDSON INTL/MB
VALIDITY [UTC]
16 FEB - 2338 to
18 FEB - 0000
 
TIMES
[UTC]
WIND
[DEGREES TRUE]
VISIBILITY
[STAT. MILES]
WEATHER
CLOUDINESS
[FEET AGL]
 
17 FEB - 0000 to
17 FEB - 0400
60 @ 8 KNOTS
6+
NIL
16000 FEW
24000 SCATTERED
TEMPORARY CHANGES
17 FEB - 0000 to
17 FEB - 0400
 
 
 
9000 BROKEN
 
17 FEB - 0400 to
17 FEB - 1500
30 @ 5 KNOTS
6+
NIL
24000 FEW
BECOMING
17 FEB - 0500 to
17 FEB - 0700
360 @ 6 KNOTS
 
 
 
 
17 FEB - 1500 to
18 FEB - 0000
350 @ 8 KNOTS
6+
NIL
14000 SCATTERED
24000 BROKEN
TEMPORARY CHANGES
17 FEB - 1500 to
17 FEB - 1900
 
6
ICE CRYSTALS
 
REMARKS
THE NEXT FORECAST WILL BE ISSUED BY 0600 UTC ON DAY 17


Your time UTC time
Weather data provided by Environment Canada and NAV CANADA